createdAt,value
2018-10-18T00:00:46.739Z,95545.00
2018-10-18T00:03:17.795Z,95550.00
2018-10-18T00:05:48.696Z,95548.00
2018-10-18T00:08:19.688Z,95544.00
2018-10-18T00:10:51.440Z,95540.00
2018-10-18T00:13:22.520Z,95545.00
2018-10-18T00:15:53.411Z,95543.00
2018-10-18T00:18:24.536Z,95538.00
2018-10-18T00:20:55.458Z,95544.00
2018-10-18T00:23:26.470Z,95537.00
2018-10-18T00:25:57.424Z,95541.00
2018-10-18T00:28:28.413Z,95542.00
2018-10-18T00:30:59.332Z,95542.00
2018-10-18T00:33:30.330Z,95542.00
2018-10-18T00:36:01.385Z,95545.00
2018-10-18T00:38:32.328Z,95543.00
2018-10-18T00:41:03.227Z,95545.00
2018-10-18T00:43:34.315Z,95543.00
2018-10-18T00:46:05.619Z,95543.00
2018-10-18T00:48:36.655Z,95537.00
2018-10-18T00:51:07.750Z,95532.00
2018-10-18T00:53:38.763Z,95529.00
2018-10-18T00:56:09.758Z,95529.00
2018-10-18T00:58:40.644Z,95527.00
2018-10-18T01:01:11.566Z,95527.00
2018-10-18T01:03:42.647Z,95531.00
2018-10-18T01:06:13.615Z,95528.00
2018-10-18T01:08:44.547Z,95529.00
2018-10-18T01:11:15.427Z,95527.00
2018-10-18T01:13:46.444Z,95527.00
2018-10-18T01:16:17.334Z,95536.00
2018-10-18T01:18:48.271Z,95535.00
2018-10-18T01:21:19.251Z,95536.00
2018-10-18T01:23:50.192Z,95532.00
2018-10-18T01:26:21.090Z,95534.00
2018-10-18T01:28:52.077Z,95534.00
2018-10-18T01:31:23.039Z,95531.00
2018-10-18T01:33:53.960Z,95527.00
2018-10-18T01:36:25.168Z,95529.00
2018-10-18T01:38:56.035Z,95530.00
2018-10-18T01:41:26.927Z,95526.00
2018-10-18T01:43:58.020Z,95524.00
2018-10-18T01:46:28.856Z,95523.00
2018-10-18T01:48:59.801Z,95521.00
2018-10-18T01:51:30.676Z,95520.00
2018-10-18T01:54:01.669Z,95519.00
2018-10-18T01:56:32.516Z,95515.00
2018-10-18T01:59:03.455Z,95521.00
2018-10-18T02:01:34.331Z,95520.00
2018-10-18T02:04:05.540Z,95521.00
2018-10-18T02:06:36.436Z,95522.00
2018-10-18T02:09:11.412Z,95523.00
2018-10-18T02:11:43.042Z,95525.00
2018-10-18T02:14:13.934Z,95526.00
2018-10-18T02:16:44.753Z,95531.00
2018-10-18T02:19:15.699Z,95527.00
2018-10-18T02:21:46.552Z,95531.00
2018-10-18T02:24:17.490Z,95530.00
2018-10-18T02:26:48.291Z,95534.00
2018-10-18T02:29:19.249Z,95534.00
2018-10-18T02:31:50.076Z,95531.00
2018-10-18T02:34:20.995Z,95529.00
2018-10-18T02:36:51.937Z,95524.00
2018-10-18T02:39:22.876Z,95524.00
2018-10-18T02:41:54.131Z,95519.00
2018-10-18T02:44:25.115Z,95521.00
2018-10-18T02:46:56.058Z,95519.00
2018-10-18T02:49:27.663Z,95522.00
2018-10-18T02:51:58.595Z,95524.00
2018-10-18T02:54:29.501Z,95519.00
2018-10-18T02:57:00.456Z,95521.00
2018-10-18T02:59:31.400Z,95519.00
2018-10-18T03:02:02.301Z,95517.00
2018-10-18T03:04:33.316Z,95523.00
2018-10-18T03:07:04.328Z,95520.00
2018-10-18T03:09:35.290Z,95520.00
2018-10-18T03:12:06.802Z,95527.00
2018-10-18T03:14:37.779Z,95531.00
2018-10-18T03:17:08.693Z,95530.00
2018-10-18T03:19:39.660Z,95531.00
2018-10-18T03:22:10.564Z,95529.00
2018-10-18T03:24:41.527Z,95531.00
2018-10-18T03:27:12.458Z,95533.00
2018-10-18T03:29:43.476Z,95538.00
2018-10-18T03:32:14.398Z,95537.00
2018-10-18T03:34:45.807Z,95543.00
2018-10-18T03:37:16.788Z,95540.00
2018-10-18T03:39:47.777Z,95542.00
2018-10-18T03:42:18.789Z,95542.00
2018-10-18T03:44:49.691Z,95546.00
2018-10-18T03:47:20.571Z,95546.00
2018-10-18T03:49:51.558Z,95546.00
2018-10-18T03:52:22.523Z,95550.00
2018-10-18T03:54:53.470Z,95543.00
2018-10-18T03:57:24.372Z,95539.00
2018-10-18T03:59:55.366Z,95546.00
2018-10-18T04:02:26.271Z,95546.00
2018-10-18T04:04:57.194Z,95544.00
2018-10-18T04:07:28.089Z,95548.00
2018-10-18T04:09:59.050Z,95551.00
2018-10-18T04:12:29.974Z,95547.00
2018-10-18T04:15:01.140Z,95548.00
2018-10-18T04:17:32.286Z,95546.00
2018-10-18T04:20:03.230Z,95547.00
2018-10-18T04:22:34.262Z,95543.00
2018-10-18T04:25:05.768Z,95542.00
2018-10-18T04:27:36.771Z,95539.00
2018-10-18T04:30:08.651Z,95540.00
2018-10-18T04:32:39.622Z,95545.00
2018-10-18T04:35:10.640Z,95544.00
2018-10-18T04:37:41.603Z,95539.00
2018-10-18T04:40:12.535Z,95540.00
2018-10-18T04:42:43.543Z,95544.00
2018-10-18T04:45:14.618Z,95540.00
2018-10-18T04:47:45.847Z,95546.00
2018-10-18T04:50:16.801Z,95543.00
2018-10-18T04:52:47.729Z,95546.00
2018-10-18T04:55:18.699Z,95547.00
2018-10-18T04:57:49.540Z,95542.00
2018-10-18T05:00:20.537Z,95544.00
2018-10-18T05:02:51.656Z,95543.00
2018-10-18T05:05:39.792Z,95543.00
2018-10-18T05:08:10.723Z,95544.00
2018-10-18T05:10:41.660Z,95545.00
2018-10-18T05:13:12.581Z,95540.00
2018-10-18T05:15:43.634Z,95537.00
2018-10-18T05:18:14.542Z,95546.00
2018-10-18T05:20:45.519Z,95551.00
2018-10-18T05:23:16.423Z,95551.00
2018-10-18T05:25:48.187Z,95555.00
2018-10-18T05:28:19.098Z,95558.00
2018-10-18T05:30:50.859Z,95561.00
2018-10-18T05:33:21.736Z,95562.00
2018-10-18T05:35:52.762Z,95566.00
2018-10-18T05:38:23.865Z,95565.00
2018-10-18T05:40:54.858Z,95566.00
2018-10-18T05:43:26.114Z,95564.00
2018-10-18T05:45:57.296Z,95562.00
2018-10-18T05:48:28.507Z,95558.00
2018-10-18T05:50:59.414Z,95557.00
2018-10-18T05:53:30.395Z,95562.00
2018-10-18T05:56:01.489Z,95567.00
2018-10-18T05:58:32.332Z,95573.00
2018-10-18T06:01:03.393Z,95573.00
2018-10-18T06:03:34.342Z,95575.00
2018-10-18T06:06:05.428Z,95577.00
2018-10-18T06:08:36.407Z,95580.00
2018-10-18T06:11:22.724Z,95580.00
2018-10-18T06:13:54.104Z,95580.00
2018-10-18T06:16:25.947Z,95586.00
2018-10-18T06:18:56.880Z,95591.00
2018-10-18T06:21:27.779Z,95590.00
2018-10-18T06:23:58.869Z,95589.00
2018-10-18T06:26:29.804Z,95587.00
2018-10-18T06:29:00.989Z,95593.00
2018-10-18T06:31:31.957Z,95592.00
2018-10-18T06:34:03.000Z,95590.00
2018-10-18T06:36:33.983Z,95595.00
2018-10-18T06:39:06.564Z,95593.00
2018-10-18T06:41:38.312Z,95593.00
2018-10-18T06:44:09.498Z,95598.00
2018-10-18T06:46:40.552Z,95600.00
2018-10-18T06:49:11.612Z,95606.00
2018-10-18T06:51:42.456Z,95609.00
2018-10-18T06:54:13.582Z,95608.00
2018-10-18T06:56:44.472Z,95606.00
2018-10-18T06:59:15.554Z,95606.00
2018-10-18T07:01:46.484Z,95612.00
2018-10-18T07:04:17.424Z,95608.00
2018-10-18T07:06:48.336Z,95604.00
2018-10-18T07:09:19.372Z,95603.00
2018-10-18T07:11:51.587Z,95605.00
2018-10-18T07:14:22.532Z,95600.00
2018-10-18T07:16:54.101Z,95599.00
2018-10-18T07:19:25.136Z,95605.00
2018-10-18T07:21:56.135Z,95606.00
2018-10-18T07:24:27.110Z,95607.00
2018-10-18T07:26:58.151Z,95603.00
2018-10-18T07:29:29.180Z,95607.00
2018-10-18T07:32:00.200Z,95606.00
2018-10-18T07:34:31.255Z,95611.00
2018-10-18T07:37:02.241Z,95608.00
2018-10-18T07:39:33.163Z,95614.00
2018-10-18T07:42:04.155Z,95619.00
2018-10-18T07:44:35.245Z,95622.00
2018-10-18T07:47:07.154Z,95627.00
2018-10-18T07:49:38.292Z,95628.00
2018-10-18T07:52:09.524Z,95631.00
2018-10-18T07:54:40.554Z,95627.00
2018-10-18T07:57:11.535Z,95626.00
2018-10-18T07:59:42.559Z,95626.00
2018-10-18T08:02:13.643Z,95629.00
2018-10-18T08:04:44.744Z,95619.00
2018-10-18T08:07:15.724Z,95626.00
2018-10-18T08:09:46.707Z,95624.00
2018-10-18T08:12:17.594Z,95617.00
2018-10-18T08:14:48.509Z,95624.00
2018-10-18T08:17:20.154Z,95617.00
2018-10-18T08:19:51.088Z,95614.00
2018-10-18T08:22:22.095Z,95613.00
2018-10-18T08:24:53.093Z,95608.00
2018-10-18T08:27:24.076Z,95610.00
2018-10-18T08:29:55.179Z,95610.00
2018-10-18T08:32:26.192Z,95612.00
2018-10-18T08:34:57.216Z,95617.00
2018-10-18T08:37:28.240Z,95614.00
2018-10-18T08:39:59.272Z,95612.00
2018-10-18T08:42:30.316Z,95617.00
2018-10-18T08:45:01.311Z,95613.00
2018-10-18T08:47:32.301Z,95615.00
2018-10-18T08:50:03.615Z,95614.00
2018-10-18T08:52:35.539Z,95612.00
2018-10-18T08:55:08.125Z,95616.00
2018-10-18T08:57:39.107Z,95616.00
2018-10-18T09:00:11.754Z,95611.00
2018-10-18T09:02:45.120Z,95611.00
2018-10-18T09:05:16.707Z,95604.00
2018-10-18T09:07:48.090Z,95609.00
2018-10-18T09:10:19.095Z,95609.00
2018-10-18T09:12:50.262Z,95610.00
2018-10-18T09:15:21.317Z,95602.00
2018-10-18T09:17:52.463Z,95598.00
2018-10-18T09:20:23.679Z,95596.00
2018-10-18T09:22:54.635Z,95592.00
2018-10-18T09:25:25.742Z,95591.00
2018-10-18T09:27:56.816Z,95586.00
2018-10-18T09:30:27.908Z,95590.00
2018-10-18T09:32:58.913Z,95585.00
2018-10-18T09:35:30.251Z,95585.00
2018-10-18T09:38:01.459Z,95578.00
2018-10-18T09:40:32.660Z,95571.00
2018-10-18T09:43:03.846Z,95572.00
2018-10-18T09:45:34.998Z,95569.00
2018-10-18T09:48:05.982Z,95566.00
2018-10-18T09:50:37.011Z,95567.00
2018-10-18T09:53:08.391Z,95559.00
2018-10-18T09:55:39.689Z,95553.00
2018-10-18T09:58:10.614Z,95555.00
2018-10-18T10:00:46.832Z,95552.00
2018-10-18T10:03:18.867Z,95551.00
2018-10-18T10:05:49.884Z,95547.00
2018-10-18T10:08:20.838Z,95552.00
2018-10-18T10:10:52.060Z,95544.00
2018-10-18T10:13:23.532Z,95540.00
2018-10-18T10:15:54.554Z,95539.00
2018-10-18T10:18:25.548Z,95539.00
2018-10-18T10:20:56.591Z,95526.00
2018-10-18T10:23:27.631Z,95524.00
2018-10-18T10:25:58.659Z,95528.00
2018-10-18T10:28:29.663Z,95523.00
2018-10-18T10:31:00.721Z,95515.00
2018-10-18T10:33:31.983Z,95519.00
2018-10-18T10:36:03.013Z,95514.00
2018-10-18T10:38:34.304Z,95516.00
2018-10-18T10:41:05.654Z,95516.00
2018-10-18T10:43:36.593Z,95506.00
2018-10-18T10:46:07.878Z,95502.00
2018-10-18T10:48:39.034Z,95498.00
2018-10-18T10:51:10.279Z,95490.00
2018-10-18T10:53:41.458Z,95487.00
2018-10-18T10:56:12.705Z,95487.00
2018-10-18T10:58:43.705Z,95478.00
2018-10-18T11:01:21.712Z,95474.00
2018-10-18T11:03:54.107Z,95472.00
2018-10-18T11:06:25.485Z,95466.00
2018-10-18T11:08:56.507Z,95466.00
2018-10-18T11:11:27.767Z,95461.00
2018-10-18T11:13:58.725Z,95457.00
2018-10-18T11:16:29.918Z,95455.00
2018-10-18T11:19:01.036Z,95456.00
2018-10-18T11:21:32.204Z,95454.00
2018-10-18T11:24:03.290Z,95447.00
2018-10-18T11:26:34.471Z,95450.00
2018-10-18T11:29:05.892Z,95450.00
2018-10-18T11:31:36.980Z,95449.00
2018-10-18T11:34:08.348Z,95447.00
2018-10-18T11:36:39.414Z,95444.00
2018-10-18T11:39:11.115Z,95438.00
2018-10-18T11:41:42.198Z,95436.00
2018-10-18T11:44:13.280Z,95438.00
2018-10-18T11:46:44.334Z,95427.00
2018-10-18T11:49:15.395Z,95423.00
2018-10-18T11:51:46.743Z,95426.00
2018-10-18T11:54:17.932Z,95422.00
2018-10-18T11:56:49.319Z,95425.00
2018-10-18T11:59:20.590Z,95418.00
2018-10-18T12:01:51.768Z,95412.00
2018-10-18T12:04:22.712Z,95412.00
2018-10-18T12:06:53.772Z,95411.00
2018-10-18T12:09:25.513Z,95406.00
2018-10-18T12:11:56.520Z,95404.00
2018-10-18T12:14:28.867Z,95399.00
2018-10-18T12:17:01.576Z,95402.00
2018-10-18T12:19:32.692Z,95394.00
2018-10-18T12:22:06.431Z,95392.00
2018-10-18T12:24:37.408Z,95390.00
2018-10-18T12:27:08.683Z,95388.00
2018-10-18T12:29:39.669Z,95386.00
2018-10-18T12:32:13.476Z,95376.00
2018-10-18T12:34:44.592Z,95382.00
2018-10-18T12:37:15.631Z,95381.00
2018-10-18T12:39:46.868Z,95379.00
2018-10-18T12:42:17.934Z,95378.00
2018-10-18T12:44:48.877Z,95382.00
2018-10-18T12:47:20.074Z,95379.00
2018-10-18T12:49:51.112Z,95375.00
2018-10-18T12:52:22.174Z,95377.00
2018-10-18T12:54:53.091Z,95377.00
2018-10-18T12:57:24.174Z,95376.00
2018-10-18T12:59:55.123Z,95375.00
2018-10-18T13:02:26.545Z,95375.00
2018-10-18T13:04:57.491Z,95374.00
2018-10-18T13:07:28.703Z,95371.00
2018-10-18T13:10:00.094Z,95364.00
2018-10-18T13:12:31.527Z,95367.00
2018-10-18T13:15:03.306Z,95362.00
2018-10-18T13:17:34.524Z,95360.00
2018-10-18T13:20:07.773Z,95357.00
2018-10-18T13:22:39.730Z,95363.00
2018-10-18T13:25:12.044Z,95357.00
2018-10-18T13:27:43.952Z,95346.00
2018-10-18T13:30:15.021Z,95349.00
2018-10-18T13:32:45.960Z,95354.00
2018-10-18T13:35:17.119Z,95358.00
2018-10-18T13:37:48.180Z,95357.00
2018-10-18T13:40:19.314Z,95352.00
2018-10-18T13:42:50.292Z,95353.00
2018-10-18T13:45:21.545Z,95349.00
2018-10-18T13:47:52.824Z,95349.00
2018-10-18T13:50:24.270Z,95355.00
2018-10-18T13:52:55.339Z,95353.00
2018-10-18T13:55:26.941Z,95355.00
2018-10-18T13:57:58.004Z,95351.00
2018-10-18T14:00:32.336Z,95352.00
2018-10-18T14:03:03.394Z,95347.00
2018-10-18T14:05:34.511Z,95353.00
2018-10-18T14:08:05.921Z,95350.00
2018-10-18T14:10:36.979Z,95349.00
2018-10-18T14:13:07.980Z,95351.00
2018-10-18T14:15:39.372Z,95354.00
2018-10-18T14:18:10.460Z,95349.00
2018-10-18T14:20:41.634Z,95349.00
2018-10-18T14:23:12.687Z,95346.00
2018-10-18T14:25:43.750Z,95346.00
2018-10-18T14:28:15.617Z,95352.00
2018-10-18T14:30:46.762Z,95352.00
2018-10-18T14:33:17.794Z,95355.00
2018-10-18T14:35:48.851Z,95352.00
2018-10-18T14:38:19.940Z,95355.00
2018-10-18T14:40:51.289Z,95357.00
2018-10-18T14:43:22.515Z,95354.00
2018-10-18T14:45:53.522Z,95356.00
2018-10-18T14:48:24.663Z,95353.00
2018-10-18T14:50:55.863Z,95352.00
2018-10-18T14:53:27.313Z,95352.00
2018-10-18T14:55:59.172Z,95351.00
2018-10-18T14:58:30.496Z,95350.00
2018-10-18T15:01:01.612Z,95351.00
2018-10-18T15:03:32.660Z,95343.00
2018-10-18T15:06:03.798Z,95351.00
2018-10-18T15:08:34.857Z,95350.00
2018-10-18T15:11:06.529Z,95350.00
2018-10-18T15:13:37.767Z,95351.00
2018-10-18T15:16:08.817Z,95355.00
2018-10-18T15:18:40.048Z,95351.00
2018-10-18T15:21:11.284Z,95359.00
2018-10-18T15:23:42.420Z,95362.00
2018-10-18T15:26:13.548Z,95364.00
2018-10-18T15:28:46.097Z,95360.00
2018-10-18T15:31:17.907Z,95363.00
2018-10-18T15:33:48.991Z,95360.00
2018-10-18T15:36:20.750Z,95367.00
2018-10-18T15:38:52.559Z,95365.00
2018-10-18T15:41:23.355Z,95368.00
2018-10-18T15:43:54.854Z,95372.00
2018-10-18T15:46:25.909Z,95374.00
2018-10-18T15:48:57.139Z,95365.00
2018-10-18T15:51:28.348Z,95369.00
2018-10-18T15:53:59.418Z,95375.00
2018-10-18T15:56:30.565Z,95378.00
2018-10-18T15:59:01.533Z,95386.00
2018-10-18T16:01:32.450Z,95387.00
2018-10-18T16:04:03.567Z,95392.00
2018-10-18T16:06:34.560Z,95388.00
2018-10-18T16:09:08.700Z,95396.00
2018-10-18T16:11:39.705Z,95396.00
2018-10-18T16:14:11.089Z,95402.00
2018-10-18T16:16:42.136Z,95404.00
2018-10-18T16:19:13.125Z,95409.00
2018-10-18T16:21:44.043Z,95415.00
2018-10-18T16:24:15.141Z,95420.00
2018-10-18T16:26:46.130Z,95419.00
2018-10-18T16:29:18.370Z,95426.00
2018-10-18T16:31:49.443Z,95431.00
2018-10-18T16:34:20.707Z,95430.00
2018-10-18T16:36:51.872Z,95433.00
2018-10-18T16:39:24.270Z,95437.00
2018-10-18T16:41:56.025Z,95443.00
2018-10-18T16:44:27.144Z,95444.00
2018-10-18T16:46:58.119Z,95457.00
2018-10-18T16:49:29.297Z,95456.00
2018-10-18T16:52:00.445Z,95460.00
2018-10-18T16:54:32.301Z,95467.00
2018-10-18T16:57:03.831Z,95463.00
2018-10-18T16:59:35.377Z,95467.00
2018-10-18T17:02:07.356Z,95471.00
2018-10-18T17:04:38.482Z,95472.00
2018-10-18T17:07:09.775Z,95482.00
2018-10-18T17:09:40.800Z,95486.00
2018-10-18T17:12:11.870Z,95487.00
2018-10-18T17:14:42.943Z,95485.00
2018-10-18T17:17:13.939Z,95488.00
2018-10-18T17:19:45.371Z,95492.00
2018-10-18T17:22:17.114Z,95492.00
2018-10-18T17:24:48.928Z,95491.00
2018-10-18T17:27:23.225Z,95493.00
2018-10-18T17:29:54.220Z,95498.00
2018-10-18T17:32:25.282Z,95499.00
2018-10-18T17:34:57.474Z,95505.00
2018-10-18T17:37:28.477Z,95509.00
2018-10-18T17:40:00.428Z,95507.00
2018-10-18T17:42:31.521Z,95511.00
2018-10-18T17:45:02.574Z,95517.00
2018-10-18T17:47:34.174Z,95515.00
2018-10-18T17:50:05.466Z,95518.00
2018-10-18T17:52:36.934Z,95516.00
2018-10-18T17:55:09.232Z,95520.00
2018-10-18T17:57:40.727Z,95521.00
2018-10-18T18:00:13.685Z,95518.00
2018-10-18T18:02:44.714Z,95520.00
2018-10-18T18:05:16.802Z,95525.00
2018-10-18T18:07:48.883Z,95531.00
2018-10-18T18:10:21.225Z,95536.00
2018-10-18T18:12:53.123Z,95538.00
2018-10-18T18:15:24.278Z,95544.00
2018-10-18T18:17:55.871Z,95541.00
2018-10-18T18:20:27.113Z,95547.00
2018-10-18T18:22:58.896Z,95551.00
2018-10-18T18:25:30.058Z,95557.00
2018-10-18T18:28:01.301Z,95560.00
2018-10-18T18:30:32.532Z,95566.00
2018-10-18T18:33:03.822Z,95568.00
2018-10-18T18:35:35.274Z,95570.00
2018-10-18T18:38:06.805Z,95571.00
2018-10-18T18:40:39.312Z,95572.00
2018-10-18T18:43:10.548Z,95571.00
2018-10-18T18:45:48.505Z,95578.00
2018-10-18T18:48:19.789Z,95582.00
2018-10-18T18:50:51.214Z,95585.00
2018-10-18T18:53:22.491Z,95585.00
2018-10-18T18:55:55.072Z,95588.00
2018-10-18T18:58:26.272Z,95587.00
2018-10-18T19:00:58.124Z,95594.00
2018-10-18T19:03:29.549Z,95599.00
2018-10-18T19:06:03.094Z,95595.00
2018-10-18T19:08:35.112Z,95603.00
2018-10-18T19:11:06.631Z,95603.00
2018-10-18T19:13:38.382Z,95600.00
2018-10-18T19:16:09.879Z,95598.00
2018-10-18T19:18:41.374Z,95605.00
2018-10-18T19:21:12.636Z,95605.00
2018-10-18T19:23:43.856Z,95602.00
2018-10-18T19:26:15.319Z,95608.00
2018-10-18T19:28:46.946Z,95612.00
2018-10-18T19:31:18.386Z,95610.00
2018-10-18T19:33:49.854Z,95613.00
2018-10-18T19:36:21.133Z,95609.00
2018-10-18T19:38:53.203Z,95609.00
2018-10-18T19:41:24.712Z,95613.00
2018-10-18T19:43:56.190Z,95611.00
2018-10-18T19:46:27.961Z,95612.00
2018-10-18T19:48:59.392Z,95620.00
2018-10-18T19:51:30.968Z,95621.00
2018-10-18T19:54:02.723Z,95623.00
2018-10-18T19:56:33.927Z,95623.00
2018-10-18T19:59:05.212Z,95627.00
2018-10-18T20:01:38.132Z,95625.00
2018-10-18T20:04:09.241Z,95629.00
2018-10-18T20:06:40.728Z,95628.00
2018-10-18T20:09:14.102Z,95629.00
2018-10-18T20:11:45.386Z,95631.00
2018-10-18T20:14:16.400Z,95626.00
2018-10-18T20:16:47.404Z,95628.00
2018-10-18T20:19:18.464Z,95635.00
2018-10-18T20:21:49.562Z,95634.00
2018-10-18T20:24:20.628Z,95633.00
2018-10-18T20:26:51.851Z,95635.00
2018-10-18T20:29:22.876Z,95637.00
2018-10-18T20:31:54.868Z,95631.00
2018-10-18T20:34:26.463Z,95630.00
2018-10-18T20:36:57.834Z,95635.00
2018-10-18T20:39:28.921Z,95637.00
2018-10-18T20:42:00.086Z,95637.00
2018-10-18T20:44:31.204Z,95646.00
2018-10-18T20:47:02.813Z,95649.00
2018-10-18T20:49:33.852Z,95648.00
2018-10-18T20:52:05.322Z,95645.00
2018-10-18T20:54:36.323Z,95652.00
2018-10-18T20:57:07.652Z,95648.00
2018-10-18T20:59:38.749Z,95655.00
2018-10-18T21:02:10.744Z,95654.00
2018-10-18T21:04:41.752Z,95657.00
2018-10-18T21:07:13.113Z,95664.00
2018-10-18T21:09:44.252Z,95662.00
2018-10-18T21:12:15.334Z,95670.00
2018-10-18T21:14:46.412Z,95679.00
2018-10-18T21:17:17.476Z,95678.00
2018-10-18T21:19:48.492Z,95674.00
2018-10-18T21:22:19.902Z,95679.00
2018-10-18T21:24:51.035Z,95680.00
2018-10-18T21:27:22.162Z,95681.00
2018-10-18T21:29:53.160Z,95678.00
2018-10-18T21:32:24.398Z,95679.00
2018-10-18T21:34:55.886Z,95681.00
2018-10-18T21:37:27.039Z,95680.00
2018-10-18T21:39:58.064Z,95680.00
2018-10-18T21:42:29.135Z,95688.00
2018-10-18T21:45:01.550Z,95679.00
2018-10-18T21:47:32.974Z,95679.00
2018-10-18T21:50:04.217Z,95681.00
2018-10-18T21:52:35.496Z,95680.00
2018-10-18T21:55:07.277Z,95684.00
2018-10-18T21:57:38.449Z,95681.00
2018-10-18T22:00:14.173Z,95680.00
2018-10-18T22:02:46.147Z,95682.00
2018-10-18T22:05:17.323Z,95684.00
2018-10-18T22:07:48.375Z,95683.00
2018-10-18T22:10:19.435Z,95685.00
2018-10-18T22:12:53.420Z,95681.00
2018-10-18T22:15:24.471Z,95678.00
2018-10-18T22:17:55.532Z,95678.00
2018-10-18T22:20:26.532Z,95678.00
2018-10-18T22:22:57.729Z,95674.00
2018-10-18T22:25:28.764Z,95673.00
2018-10-18T22:27:59.865Z,95676.00
2018-10-18T22:30:30.956Z,95673.00
2018-10-18T22:33:02.003Z,95678.00
2018-10-18T22:35:33.092Z,95679.00
2018-10-18T22:38:04.391Z,95677.00
2018-10-18T22:40:35.439Z,95684.00
2018-10-18T22:43:07.039Z,95679.00
2018-10-18T22:45:38.071Z,95674.00
2018-10-18T22:48:09.151Z,95676.00
2018-10-18T22:50:40.131Z,95678.00
2018-10-18T22:53:11.245Z,95678.00
2018-10-18T22:55:42.187Z,95676.00
2018-10-18T22:58:13.436Z,95680.00
2018-10-18T23:00:49.064Z,95686.00
2018-10-18T23:03:21.737Z,95684.00
2018-10-18T23:05:52.719Z,95687.00
2018-10-18T23:08:23.791Z,95686.00
2018-10-18T23:10:54.831Z,95680.00
2018-10-18T23:13:25.872Z,95678.00
2018-10-18T23:15:56.919Z,95676.00
2018-10-18T23:18:27.888Z,95673.00
2018-10-18T23:20:58.930Z,95673.00
2018-10-18T23:23:29.971Z,95676.00
2018-10-18T23:26:00.967Z,95676.00
2018-10-18T23:28:31.931Z,95679.00
2018-10-18T23:31:02.954Z,95674.00
2018-10-18T23:33:34.054Z,95670.00
2018-10-18T23:36:05.072Z,95674.00
2018-10-18T23:38:36.195Z,95669.00
2018-10-18T23:41:07.904Z,95669.00
2018-10-18T23:43:38.853Z,95674.00
2018-10-18T23:46:09.851Z,95670.00
2018-10-18T23:48:40.871Z,95679.00
2018-10-18T23:51:11.939Z,95683.00
2018-10-18T23:53:42.911Z,95681.00
2018-10-18T23:56:13.964Z,95678.00
2018-10-18T23:58:44.954Z,95678.00
